Time;durP1;ratioP1;P1;durP2;ratioP2;P2;SDS_P1;SDS_P2;PMS_P1;PMS_P2;Temp;Humidity;BMP_temperature;BMP_pressure;BME280_temperature;BME280_humidity;BME280_pressure;Samples;Min_cycle;Max_cycle;Signal;HPM_P1;HPM_P2
2022/04/28 00:00:36;;;;;;;7.03;5.00;;;8.30;99.90;;;;;;5078048;28;20195;-66
2022/04/28 00:03:03;;;;;;;7.23;4.80;;;8.30;99.90;;;;;;5071878;28;20215;-66
2022/04/28 00:05:30;;;;;;;8.67;4.67;;;8.30;99.90;;;;;;5072975;28;20758;-66
2022/04/28 00:07:57;;;;;;;6.87;5.07;;;8.20;99.90;;;;;;5072276;28;20725;-66
2022/04/28 00:10:24;;;;;;;7.07;4.90;;;8.20;99.90;;;;;;5067614;28;20640;-66
2022/04/28 00:12:51;;;;;;;6.60;4.37;;;8.10;99.90;;;;;;5072705;28;20220;-66
2022/04/28 00:15:18;;;;;;;7.27;4.70;;;8.10;99.90;;;;;;5074570;28;20694;-66
2022/04/28 00:17:45;;;;;;;6.97;4.97;;;8.00;99.90;;;;;;5070054;28;20206;-66
2022/04/28 00:20:12;;;;;;;7.13;5.20;;;8.00;99.90;;;;;;5078893;28;20204;-66
2022/04/28 00:22:39;;;;;;;8.90;4.40;;;7.90;99.90;;;;;;5077413;28;20194;-66
2022/04/28 00:25:06;;;;;;;7.47;4.70;;;7.80;99.90;;;;;;5080743;28;20219;-71
2022/04/28 00:27:33;;;;;;;6.90;5.00;;;7.70;99.90;;;;;;5076020;28;20195;-68
2022/04/28 00:30:00;;;;;;;7.77;5.13;;;7.50;99.90;;;;;;5079104;28;20229;-72
2022/04/28 00:32:27;;;;;;;5.97;4.47;;;7.70;99.90;;;;;;5079013;28;20224;-69
2022/04/28 00:34:53;;;;;;;5.77;4.47;;;7.60;99.90;;;;;;5073823;28;20221;-68
2022/04/28 00:37:21;;;;;;;7.07;4.93;;;7.50;99.90;;;;;;5072506;28;20202;-69
2022/04/28 00:39:48;;;;;;;6.23;4.60;;;7.40;99.90;;;;;;5073586;28;20187;-70
2022/04/28 00:42:16;;;;;;;6.97;4.87;;;7.40;99.90;;;;;;5077858;28;20194;-68
2022/04/28 00:44:43;;;;;;;7.07;5.17;;;7.30;99.90;;;;;;5066161;28;20695;-69
2022/04/28 00:47:10;;;;;;;6.83;4.93;;;7.50;99.90;;;;;;5072502;28;20669;-68
2022/04/28 00:52:24;;;;;;;6.23;4.73;;;7.70;99.90;;;;;;5073586;28;20197;-71
2022/04/28 00:54:55;;;;;;;7.13;5.17;;;7.70;99.90;;;;;;5071292;28;20295;-70
2022/04/28 00:57:22;;;;;;;8.23;5.63;;;7.50;99.90;;;;;;5074205;28;20210;-69
2022/04/28 00:59:50;;;;;;;6.93;5.07;;;7.40;99.90;;;;;;5076641;28;20658;-70
2022/04/28 01:02:18;;;;;;;8.50;5.93;;;7.40;99.90;;;;;;5075447;28;20189;-70
2022/04/28 01:04:46;;;;;;;7.50;5.30;;;7.40;99.90;;;;;;5068908;28;20218;-71
2022/04/28 01:07:13;;;;;;;8.87;5.37;;;7.30;99.90;;;;;;5073055;28;20569;-68
2022/04/28 01:09:41;;;;;;;7.80;5.67;;;7.20;99.90;;;;;;5081137;28;20206;-72
2022/04/28 01:12:14;;;;;;;12.97;6.63;;;7.10;99.90;;;;;;5074761;28;20209;-71
2022/04/28 01:14:45;;;;;;;8.17;5.70;;;7.10;99.90;;;;;;5075314;28;20467;-70
2022/04/28 01:17:13;;;;;;;8.97;6.70;;;7.10;99.90;;;;;;5075037;28;20205;-69
2022/04/28 01:19:40;;;;;;;9.43;6.47;;;7.10;99.90;;;;;;5070281;28;20648;-71
2022/04/28 01:22:08;;;;;;;9.70;6.87;;;7.10;99.90;;;;;;5068028;28;20691;-68
2022/04/28 01:24:36;;;;;;;11.27;6.97;;;7.10;99.90;;;;;;5077607;28;20320;-70
2022/04/28 01:27:05;;;;;;;9.03;6.40;;;7.00;99.90;;;;;;5073599;28;20194;-68
2022/04/28 01:29:33;;;;;;;8.60;6.57;;;7.00;99.90;;;;;;5076441;28;20205;-69
2022/04/28 01:32:03;;;;;;;11.07;6.70;;;6.90;99.90;;;;;;5071735;28;20221;-69
2022/04/28 01:34:30;;;;;;;10.30;6.17;;;6.90;99.90;;;;;;5074538;28;20225;-69
2022/04/28 01:36:56;;;;;;;9.83;6.70;;;6.90;99.90;;;;;;5072032;28;20562;-68
2022/04/28 01:39:23;;;;;;;11.33;6.80;;;7.20;99.90;;;;;;5072604;28;20211;-72
2022/04/28 01:41:50;;;;;;;10.67;5.97;;;7.30;99.90;;;;;;5072326;28;20573;-66
2022/04/28 01:44:17;;;;;;;11.60;6.73;;;7.20;99.90;;;;;;5068111;28;20219;-67
2022/04/28 01:46:44;;;;;;;11.50;6.73;;;7.10;99.90;;;;;;5077414;28;20228;-66
2022/04/28 01:49:12;;;;;;;9.67;6.53;;;7.10;99.90;;;;;;5069399;28;20206;-66
2022/04/28 01:57:10;;;;;;;11.17;7.20;;;7.10;99.90;;;;;;5076998;28;20194;-66
2022/04/28 01:59:37;;;;;;;10.03;6.00;;;7.00;99.90;;;;;;5070086;28;20195;-66
2022/04/28 02:02:03;;;;;;;9.70;6.43;;;6.90;99.90;;;;;;5077131;28;20201;-66
2022/04/28 02:04:30;;;;;;;13.57;6.90;;;6.80;99.90;;;;;;5083518;28;20266;-66
2022/04/28 02:06:57;;;;;;;10.23;6.37;;;6.90;99.90;;;;;;5074206;28;20198;-66
2022/04/28 02:09:24;;;;;;;9.17;6.60;;;6.90;99.90;;;;;;5069746;28;20205;-66
2022/04/28 02:11:50;;;;;;;10.70;7.20;;;6.90;99.90;;;;;;5070901;28;20194;-66
2022/04/28 02:14:17;;;;;;;9.57;6.73;;;7.10;99.90;;;;;;5074824;28;20237;-66
2022/04/28 02:16:44;;;;;;;11.00;6.70;;;7.00;99.90;;;;;;5068939;28;20198;-66
2022/04/28 02:19:10;;;;;;;11.63;6.87;;;6.90;99.90;;;;;;5077168;28;20201;-66
2022/04/28 02:21:37;;;;;;;8.70;6.37;;;6.80;99.90;;;;;;5085690;28;20193;-66
2022/04/28 02:24:04;;;;;;;10.00;6.60;;;6.70;99.90;;;;;;5071080;28;20214;-66
2022/04/28 02:26:31;;;;;;;8.77;5.93;;;6.70;99.90;;;;;;5070555;28;20210;-66
2022/04/28 02:28:57;;;;;;;8.43;6.03;;;6.60;99.90;;;;;;5084547;28;20829;-66
2022/04/28 02:31:24;;;;;;;9.37;6.40;;;6.60;99.90;;;;;;5073962;28;20201;-66
2022/04/28 02:33:51;;;;;;;8.07;5.80;;;6.50;99.90;;;;;;5081844;28;20225;-66
2022/04/28 02:36:17;;;;;;;8.80;6.10;;;6.50;99.90;;;;;;5072352;28;20209;-66
2022/04/28 02:38:44;;;;;;;8.17;5.77;;;6.40;99.90;;;;;;5070889;28;20194;-66
2022/04/28 02:41:11;;;;;;;8.67;6.00;;;6.40;99.90;;;;;;5072096;28;20194;-66
2022/04/28 02:43:37;;;;;;;9.33;5.77;;;6.40;99.90;;;;;;5075345;28;20719;-66
2022/04/28 02:46:04;;;;;;;10.20;6.57;;;6.40;99.90;;;;;;5076480;28;20194;-66
2022/04/28 02:48:32;;;;;;;10.87;6.33;;;6.50;99.90;;;;;;5070216;28;20630;-66
2022/04/28 02:50:58;;;;;;;9.67;6.47;;;6.50;99.90;;;;;;5078263;28;20201;-66
2022/04/28 02:53:25;;;;;;;10.27;6.80;;;6.50;99.90;;;;;;5072143;28;20250;-66
2022/04/28 02:55:52;;;;;;;8.23;6.30;;;6.40;99.90;;;;;;5078312;28;20204;-66
2022/04/28 02:58:18;;;;;;;11.10;6.73;;;6.40;99.90;;;;;;5081145;28;20198;-66
2022/04/28 03:00:45;;;;;;;9.93;6.53;;;6.40;99.90;;;;;;5081256;28;20272;-66
2022/04/28 03:03:12;;;;;;;9.77;6.60;;;6.40;99.90;;;;;;5075205;28;20197;-69
2022/04/28 03:11:15;;;;;;;10.83;6.80;;;6.20;99.90;;;;;;5079248;28;20209;-68
2022/04/28 03:13:42;;;;;;;7.97;6.47;;;6.10;99.90;;;;;;5076107;28;20230;-72
2022/04/28 03:16:09;;;;;;;10.37;6.67;;;6.10;99.90;;;;;;5075174;28;20299;-70
2022/04/28 03:18:35;;;;;;;11.73;7.43;;;6.10;99.90;;;;;;5078912;28;20227;-67
2022/04/28 03:21:02;;;;;;;13.37;7.30;;;6.10;99.90;;;;;;5072797;28;20605;-67
2022/04/28 03:23:29;;;;;;;10.73;7.03;;;6.10;99.90;;;;;;5075886;28;20351;-66
2022/04/28 03:25:56;;;;;;;11.10;6.93;;;6.20;99.90;;;;;;5077807;28;20205;-66
2022/04/28 03:28:23;;;;;;;13.67;7.23;;;6.30;99.90;;;;;;5071912;28;20205;-67
2022/04/28 03:30:50;;;;;;;10.43;7.10;;;6.20;99.90;;;;;;5078047;28;20606;-66
2022/04/28 03:33:18;;;;;;;11.33;7.33;;;6.30;99.90;;;;;;5073820;28;20422;-66
2022/04/28 03:35:44;;;;;;;13.20;7.50;;;6.40;99.90;;;;;;5075266;28;21624;-69
2022/04/28 03:38:11;;;;;;;10.73;6.90;;;6.30;99.90;;;;;;5081704;28;20193;-72
2022/04/28 03:40:40;;;;;;;10.00;7.03;;;6.30;99.90;;;;;;5079692;28;20213;-69
2022/04/28 03:43:07;;;;;;;11.03;7.43;;;6.30;99.90;;;;;;5071782;28;20198;-69
2022/04/28 03:45:34;;;;;;;8.93;6.90;;;6.40;99.90;;;;;;5075968;28;20205;-69
2022/04/28 03:48:01;;;;;;;10.70;7.20;;;6.20;99.90;;;;;;5076981;28;20196;-69
2022/04/28 03:50:29;;;;;;;9.63;6.50;;;6.10;99.90;;;;;;5075154;28;20188;-68
2022/04/28 03:52:56;;;;;;;12.13;7.70;;;6.10;99.90;;;;;;5077798;28;20201;-68
2022/04/28 03:55:24;;;;;;;12.33;7.10;;;6.20;99.90;;;;;;5071533;28;20225;-68
2022/04/28 03:57:51;;;;;;;11.20;7.00;;;6.20;99.90;;;;;;5080042;28;20196;-69
2022/04/28 04:00:18;;;;;;;9.50;6.70;;;6.10;99.90;;;;;;5079817;28;20195;-69
2022/04/28 04:02:46;;;;;;;10.57;7.03;;;6.00;99.90;;;;;;5075740;28;20204;-69
2022/04/28 04:05:13;;;;;;;11.40;6.63;;;5.90;99.90;;;;;;5077497;28;20527;-71
2022/04/28 04:07:42;;;;;;;9.83;7.10;;;6.00;99.90;;;;;;5076830;28;20206;-70
2022/04/28 04:10:10;;;;;;;10.30;7.10;;;6.00;99.90;;;;;;5072659;28;20208;-71
2022/04/28 04:12:38;;;;;;;11.13;7.10;;;6.00;99.90;;;;;;5072399;28;20209;-70
2022/04/28 04:15:06;;;;;;;9.63;6.80;;;5.90;99.90;;;;;;5073414;28;20706;-69
2022/04/28 04:17:45;;;;;;;9.10;6.43;;;5.90;99.90;;;;;;5074773;28;20681;-70
2022/04/28 04:20:13;;;;;;;9.40;6.43;;;5.90;99.90;;;;;;5074918;28;20251;-69
2022/04/28 04:22:39;;;;;;;11.23;6.70;;;5.90;99.90;;;;;;5071982;28;20187;-71
2022/04/28 04:25:07;;;;;;;11.53;6.50;;;5.90;99.90;;;;;;5075361;28;20689;-69
2022/04/28 04:27:34;;;;;;;10.90;6.97;;;6.10;99.90;;;;;;5083607;28;20213;-72
2022/04/28 04:32:17;;;;;;;9.30;6.60;;;6.20;99.90;;;;;;5072899;28;20194;-68
2022/04/28 04:32:48;;;;;;;13.23;7.70;;;6.20;99.90;;;;;;5068543;28;20202;-69
2022/04/28 04:35:16;;;;;;;12.77;7.73;;;6.40;99.90;;;;;;5070478;28;20225;-70
2022/04/28 04:37:43;;;;;;;11.20;7.67;;;6.40;99.90;;;;;;5072841;28;20202;-72
2022/04/28 04:40:11;;;;;;;11.33;7.87;;;6.60;99.90;;;;;;5075386;28;20609;-68
2022/04/28 04:42:38;;;;;;;12.93;7.57;;;6.60;99.90;;;;;;5079553;28;20200;-68
2022/04/28 04:45:07;;;;;;;12.50;7.33;;;6.70;99.90;;;;;;5069118;28;20209;-72
2022/04/28 04:47:34;;;;;;;10.60;7.47;;;6.60;99.90;;;;;;5075009;28;20202;-68
2022/04/28 04:50:00;;;;;;;11.33;7.33;;;6.40;99.90;;;;;;5075274;28;21477;-68
2022/04/28 04:52:27;;;;;;;13.73;8.50;;;6.50;99.90;;;;;;5072683;28;20226;-71
2022/04/28 04:54:54;;;;;;;14.63;8.43;;;6.60;99.90;;;;;;5074344;28;20229;-72
2022/04/28 04:57:20;;;;;;;12.30;8.30;;;6.80;99.90;;;;;;5075522;28;20193;-68
2022/04/28 04:59:47;;;;;;;13.83;8.00;;;6.70;99.90;;;;;;5073841;28;20193;-68
2022/04/28 05:02:14;;;;;;;11.17;7.80;;;6.60;99.90;;;;;;5074253;28;20287;-72
2022/04/28 05:04:41;;;;;;;16.03;8.40;;;6.60;99.90;;;;;;5070921;28;20221;-68
2022/04/28 05:07:07;;;;;;;14.20;9.17;;;6.60;99.90;;;;;;5079357;28;20189;-68
2022/04/28 05:09:34;;;;;;;13.70;9.03;;;6.80;99.90;;;;;;5075724;28;20232;-72
2022/04/28 05:12:01;;;;;;;12.40;8.10;;;6.80;99.90;;;;;;5081616;28;20204;-69
2022/04/28 05:14:27;;;;;;;15.30;9.00;;;6.80;99.90;;;;;;5078960;28;20225;-69
2022/04/28 05:16:57;;;;;;;14.63;9.47;;;7.00;99.90;;;;;;5072926;28;20846;-70
2022/04/28 05:19:24;;;;;;;15.10;9.20;;;7.20;99.90;;;;;;5080198;28;20193;-69
2022/04/28 05:21:51;;;;;;;15.63;9.43;;;7.30;99.90;;;;;;5077605;28;20194;-69
2022/04/28 05:24:18;;;;;;;15.97;8.80;;;7.50;99.90;;;;;;5074768;28;20232;-69
2022/04/28 05:26:45;;;;;;;15.13;9.73;;;7.50;99.90;;;;;;5071311;28;20660;-72
2022/04/28 05:29:11;;;;;;;13.53;9.37;;;7.50;99.90;;;;;;5072373;28;20201;-69
2022/04/28 05:31:38;;;;;;;15.90;10.43;;;7.50;99.90;;;;;;5075514;28;20190;-68
2022/04/28 05:34:05;;;;;;;15.03;10.20;;;7.50;99.90;;;;;;5080080;28;20221;-67
2022/04/28 05:36:32;;;;;;;14.77;9.60;;;7.60;99.90;;;;;;5070224;28;20202;-67
2022/04/28 05:39:00;;;;;;;16.23;9.47;;;7.70;99.90;;;;;;5077390;28;20466;-68
2022/04/28 05:41:27;;;;;;;15.53;10.30;;;7.90;99.90;;;;;;5078312;28;20194;-72
2022/04/28 05:46:40;;;;;;;16.40;10.67;;;8.30;99.90;;;;;;5072992;28;20221;-68
2022/04/28 05:49:07;;;;;;;15.47;10.93;;;8.60;99.90;;;;;;5059449;28;20594;-69
2022/04/28 05:51:34;;;;;;;14.03;9.83;;;8.80;99.90;;;;;;5069171;28;20200;-69
2022/04/28 05:54:01;;;;;;;14.33;10.50;;;9.00;99.90;;;;;;5079217;28;20621;-68
2022/04/28 05:56:28;;;;;;;16.20;10.57;;;9.00;99.90;;;;;;5074990;28;20194;-68
2022/04/28 05:58:55;;;;;;;14.63;10.23;;;9.00;99.90;;;;;;5073250;28;20200;-69
2022/04/28 06:01:22;;;;;;;14.33;10.10;;;9.00;99.90;;;;;;5077345;28;20193;-69
2022/04/28 06:03:49;;;;;;;16.93;10.20;;;9.00;99.90;;;;;;5078114;28;20223;-69
2022/04/28 06:06:16;;;;;;;19.20;10.83;;;9.10;99.90;;;;;;5074752;28;20674;-69
2022/04/28 06:08:42;;;;;;;17.60;12.13;;;9.10;99.90;;;;;;5078568;28;20216;-73
2022/04/28 06:11:09;;;;;;;18.93;11.70;;;9.10;99.90;;;;;;5071673;28;20296;-72
2022/04/28 06:13:37;;;;;;;16.67;11.13;;;9.10;99.90;;;;;;5074724;28;20565;-69
2022/04/28 06:16:04;;;;;;;20.53;13.43;;;9.10;99.90;;;;;;5077228;28;20574;-70
2022/04/28 06:18:31;;;;;;;19.20;12.33;;;9.30;99.90;;;;;;5074064;28;20199;-68
2022/04/28 06:20:58;;;;;;;24.33;14.17;;;9.40;99.90;;;;;;5071589;28;20630;-70
2022/04/28 06:23:24;;;;;;;19.23;12.70;;;9.50;99.90;;;;;;5070776;28;20663;-69
2022/04/28 06:25:51;;;;;;;18.30;12.43;;;9.60;99.90;;;;;;5075764;28;20283;-68
2022/04/28 06:28:18;;;;;;;22.73;12.00;;;9.70;99.90;;;;;;5077650;28;20204;-68
2022/04/28 06:30:45;;;;;;;17.37;11.60;;;9.80;99.90;;;;;;5078928;28;20201;-71
2022/04/28 06:33:11;;;;;;;19.77;12.23;;;9.70;99.90;;;;;;5083654;28;20247;-67
2022/04/28 06:35:38;;;;;;;17.03;11.03;;;9.90;99.90;;;;;;5073699;28;20301;-67
2022/04/28 06:38:05;;;;;;;18.73;12.23;;;10.00;99.90;;;;;;5070639;28;20201;-68
2022/04/28 06:40:31;;;;;;;16.00;10.83;;;10.10;99.90;;;;;;5075149;28;20656;-67
2022/04/28 06:42:58;;;;;;;20.47;12.50;;;10.20;99.90;;;;;;5071917;28;20213;-67
2022/04/28 06:45:25;;;;;;;17.93;11.10;;;10.30;99.90;;;;;;5074367;28;20221;-69
2022/04/28 06:47:51;;;;;;;15.73;11.13;;;10.20;99.90;;;;;;5083739;28;20191;-67
2022/04/28 06:50:18;;;;;;;16.03;11.60;;;10.30;99.90;;;;;;5074820;28;20665;-67
2022/04/28 06:52:45;;;;;;;17.17;11.17;;;10.40;99.90;;;;;;5075917;28;20723;-68
2022/04/28 06:55:13;;;;;;;16.67;11.30;;;10.60;99.90;;;;;;5072115;28;20222;-66
2022/04/28 06:57:40;;;;;;;14.47;9.60;;;10.90;99.90;;;;;;5076037;28;20226;-69
2022/04/28 07:00:08;;;;;;;13.20;9.37;;;11.30;99.90;;;;;;5068278;28;20201;-67
2022/04/28 07:02:35;;;;;;;16.03;9.73;;;11.50;99.90;;;;;;5074431;28;20206;-65
2022/04/28 07:05:03;;;;;;;14.83;9.47;;;11.70;99.90;;;;;;5072879;28;20268;-70
2022/04/28 07:07:29;;;;;;;15.97;9.80;;;12.20;99.90;;;;;;5071551;28;20590;-70
2022/04/28 07:09:56;;;;;;;15.33;10.30;;;12.50;99.90;;;;;;5074264;28;20214;-75
2022/04/28 07:12:31;;;;;;;14.73;9.30;;;12.50;99.90;;;;;;5073668;28;20207;-72
2022/04/28 07:14:59;;;;;;;11.50;8.80;;;12.60;99.90;;;;;;5073378;28;20650;-76
2022/04/28 07:17:25;;;;;;;11.33;7.97;;;12.80;99.90;;;;;;5079316;28;20225;-75
2022/04/28 07:19:52;;;;;;;13.97;8.03;;;13.30;99.90;;;;;;5070817;28;20213;-75
2022/04/28 07:22:19;;;;;;;10.67;8.30;;;13.70;99.90;;;;;;5074330;28;20218;-74
2022/04/28 07:24:45;;;;;;;13.77;8.97;;;14.20;99.90;;;;;;5073127;28;20227;-71
2022/04/28 07:27:12;;;;;;;11.97;9.00;;;14.70;99.90;;;;;;5069841;28;20203;-73
2022/04/28 07:29:39;;;;;;;13.60;9.47;;;14.90;99.90;;;;;;5072248;28;20701;-73
2022/04/28 07:32:07;;;;;;;14.07;9.03;;;15.20;99.90;;;;;;5070826;28;20234;-69
2022/04/28 07:34:35;;;;;;;17.00;9.20;;;15.50;99.90;;;;;;5071556;28;20222;-70
2022/04/28 07:37:03;;;;;;;17.50;9.50;;;15.70;99.90;;;;;;5070241;28;20282;-66
2022/04/28 07:39:30;;;;;;;15.37;9.00;;;15.80;99.90;;;;;;5074017;28;20194;-67
2022/04/28 07:41:57;;;;;;;14.80;9.93;;;15.90;99.90;;;;;;5080647;28;20190;-68
2022/04/28 07:44:23;;;;;;;18.30;9.20;;;15.80;99.90;;;;;;5068170;28;20222;-68
2022/04/28 07:46:50;;;;;;;15.07;9.50;;;15.70;99.90;;;;;;5070699;28;20198;-68
2022/04/28 07:49:17;;;;;;;13.27;8.70;;;15.80;99.90;;;;;;5073964;28;20197;-74
2022/04/28 07:51:43;;;;;;;19.53;9.50;;;15.80;99.90;;;;;;5070236;28;20201;-67
2022/04/28 07:54:10;;;;;;;16.37;9.00;;;15.90;99.90;;;;;;5074544;28;20691;-66
2022/04/28 07:56:37;;;;;;;14.23;9.40;;;16.00;99.90;;;;;;5065433;28;20202;-67
2022/04/28 07:59:07;;;;;;;14.63;9.00;;;16.00;99.90;;;;;;5069960;28;20238;-67
2022/04/28 08:01:49;;;;;;;19.77;8.97;;;16.10;99.90;;;;;;5072177;28;20657;-67
2022/04/28 08:04:16;;;;;;;12.17;8.53;;;16.30;99.90;;;;;;5072547;28;20240;-67
2022/04/28 08:06:43;;;;;;;13.30;8.33;;;16.40;99.90;;;;;;5070074;28;20202;-67
2022/04/28 08:09:09;;;;;;;17.17;8.47;;;16.40;99.90;;;;;;5072734;28;20624;-67
2022/04/28 08:11:39;;;;;;;13.27;9.03;;;16.20;99.90;;;;;;5069625;28;20661;-67
2022/04/28 08:14:06;;;;;;;14.23;8.60;;;16.20;99.90;;;;;;5063308;28;20210;-66
2022/04/28 08:16:32;;;;;;;13.20;9.10;;;16.30;99.90;;;;;;5066582;28;20196;-68
2022/04/28 08:19:00;;;;;;;13.13;8.67;;;16.40;99.90;;;;;;5072010;28;20201;-66
2022/04/28 08:21:26;;;;;;;14.40;8.57;;;16.50;99.90;;;;;;5071620;28;20199;-66
2022/04/28 08:23:53;;;;;;;13.27;8.63;;;16.70;99.90;;;;;;5070677;28;20715;-68
2022/04/28 08:26:20;;;;;;;14.03;7.87;;;16.90;99.90;;;;;;5073532;28;20664;-67
2022/04/28 08:28:46;;;;;;;13.50;8.77;;;16.90;99.90;;;;;;5077907;28;20194;-66
2022/04/28 08:31:13;;;;;;;15.07;8.50;;;17.00;99.90;;;;;;5071898;28;20248;-67
2022/04/28 08:33:45;;;;;;;14.63;8.73;;;17.10;99.90;;;;;;5072817;28;20281;-67
2022/04/28 08:36:14;;;;;;;13.37;8.57;;;17.10;99.90;;;;;;5076440;28;20217;-67
2022/04/28 08:38:40;;;;;;;15.27;9.70;;;17.20;99.90;;;;;;5077662;28;20196;-67
2022/04/28 08:41:09;;;;;;;14.33;8.73;;;17.40;99.90;;;;;;5074219;28;20198;-67
2022/04/28 08:43:37;;;;;;;13.57;9.20;;;17.50;99.90;;;;;;5076009;28;20817;-66
2022/04/28 08:48:52;;;;;;;12.17;8.47;;;17.80;99.90;;;;;;5078381;28;20190;-66
2022/04/28 08:51:25;;;;;;;13.70;8.27;;;17.90;99.90;;;;;;5066853;28;20220;-66
2022/04/28 08:53:53;;;;;;;13.10;8.30;;;18.00;99.90;;;;;;5067498;28;20217;-66
2022/04/28 08:56:21;;;;;;;15.83;9.03;;;18.10;99.90;;;;;;5080669;28;20218;-66
2022/04/28 08:58:48;;;;;;;12.60;8.57;;;18.20;99.90;;;;;;5073425;28;20188;-66
2022/04/28 09:01:15;;;;;;;12.07;8.57;;;18.20;99.90;;;;;;5071373;28;20474;-68
2022/04/28 09:03:42;;;;;;;10.77;8.13;;;18.40;99.90;;;;;;5074585;28;20267;-67
2022/04/28 09:06:34;;;;;;;13.97;8.37;;;18.60;99.90;;;;;;5078400;28;20332;-67
2022/04/28 09:09:04;;;;;;;12.37;8.20;;;18.80;99.90;;;;;;5074224;28;20198;-67
2022/04/28 09:11:37;;;;;;;13.13;8.23;;;19.00;99.90;;;;;;5073974;28;20210;-67
2022/04/28 09:14:09;;;;;;;12.77;7.80;;;19.00;99.90;;;;;;5065746;28;20249;-66
2022/04/28 09:16:38;;;;;;;10.53;8.27;;;19.20;99.90;;;;;;5074133;28;20628;-66
2022/04/28 09:19:05;;;;;;;15.00;8.57;;;19.40;99.90;;;;;;5075222;28;20194;-66
2022/04/28 09:21:35;;;;;;;12.73;8.93;;;19.60;99.90;;;;;;5071276;28;20281;-66
2022/04/28 09:24:03;;;;;;;15.47;8.60;;;19.50;99.90;;;;;;5076401;28;20225;-69
2022/04/28 09:26:34;;;;;;;11.30;7.47;;;19.70;99.90;;;;;;5071011;28;20619;-67
2022/04/28 09:29:03;;;;;;;11.37;8.40;;;19.90;99.90;;;;;;5072944;28;20194;-69
2022/04/28 09:31:35;;;;;;;11.30;8.30;;;19.90;99.90;;;;;;5073361;28;20775;-68
2022/04/28 09:34:23;;;;;;;11.07;7.35;;;20.00;99.90;;;;;;5070593;28;20651;-68
2022/04/28 09:36:51;;;;;;;11.35;6.88;;;20.00;99.90;;;;;;5070809;28;20186;-68
2022/04/28 09:42:31;;;;;;;8.90;6.10;;;20.40;99.90;;;;;;5073566;28;20185;-68
2022/04/28 09:45:00;;;;;;;6.93;4.28;;;20.70;99.90;;;;;;5075398;28;20233;-68
2022/04/28 09:47:29;;;;;;;4.07;3.60;;;20.90;99.90;;;;;;5075133;28;20208;-68
2022/04/28 09:49:56;;;;;;;4.75;3.67;;;21.10;99.90;;;;;;5070130;28;20201;-68
2022/04/28 09:52:26;;;;;;;4.35;3.50;;;21.30;99.90;;;;;;5075005;28;20208;-68
2022/04/28 09:54:54;;;;;;;5.63;4.28;;;21.40;99.90;;;;;;5069961;28;20218;-68
2022/04/28 09:57:22;;;;;;;7.05;3.67;;;21.60;99.90;;;;;;5077070;28;20281;-68
2022/04/28 09:59:53;;;;;;;4.88;3.65;;;21.70;99.90;;;;;;5066488;28;20218;-69
2022/04/28 10:02:21;;;;;;;5.53;4.22;;;21.70;99.90;;;;;;5074048;28;20198;-69
2022/04/28 10:04:49;;;;;;;5.05;3.67;;;21.80;99.90;;;;;;5074864;28;20260;-69
2022/04/28 10:07:17;;;;;;;6.80;3.90;;;22.20;99.90;;;;;;5071641;28;20549;-69
2022/04/28 10:09:53;;;;;;;4.72;3.50;;;22.30;99.90;;;;;;5072665;28;20210;-69
2022/04/28 10:12:21;;;;;;;7.22;4.15;;;22.80;99.90;;;;;;5074304;28;20208;-69
2022/04/28 10:14:49;;;;;;;5.60;3.35;;;23.40;99.90;;;;;;5072679;28;20210;-69
2022/04/28 10:17:25;;;;;;;3.00;2.60;;;23.80;99.90;;;;;;5072374;28;20205;-69
2022/04/28 10:19:55;;;;;;;3.95;3.55;;;23.40;98.00;;;;;;5066570;28;20196;-69
2022/04/28 10:22:31;;;;;;;8.90;4.07;;;23.30;98.80;;;;;;5074690;28;20194;-69
2022/04/28 10:33:25;;;;;;;3.97;3.00;;;23.60;97.70;;;;;;5067424;28;20206;-69
2022/04/28 10:35:54;;;;;;;3.92;3.10;;;23.80;96.30;;;;;;5069688;28;20221;-68
2022/04/28 10:38:23;;;;;;;5.07;2.80;;;24.40;97.60;;;;;;5069153;28;20205;-69
2022/04/28 10:41:25;;;;;;;3.50;2.90;;;24.80;96.20;;;;;;5071965;28;20194;-69
2022/04/28 10:43:52;;;;;;;5.85;3.00;;;25.10;95.80;;;;;;5069413;28;20210;-69
2022/04/28 10:46:25;;;;;;;5.00;3.08;;;25.40;95.20;;;;;;5073143;28;20202;-69
2022/04/28 10:48:54;;;;;;;3.92;3.00;;;25.30;94.40;;;;;;5071701;28;20194;-68
2022/04/28 10:51:22;;;;;;;3.83;3.00;;;25.20;93.90;;;;;;5072117;28;20667;-69
2022/04/28 10:53:58;;;;;;;4.88;3.10;;;24.90;94.30;;;;;;5072759;28;21095;-68
2022/04/28 10:56:28;;;;;;;4.60;3.10;;;24.80;93.10;;;;;;5071265;28;20225;-68
2022/04/28 10:59:21;;;;;;;4.40;3.55;;;24.20;94.80;;;;;;5074605;28;20202;-68
2022/04/28 11:01:48;;;;;;;5.97;3.33;;;24.10;94.70;;;;;;5065640;28;20194;-67
2022/04/28 11:04:19;;;;;;;3.53;2.75;;;24.00;94.50;;;;;;5073259;28;20218;-67
2022/04/28 11:06:52;;;;;;;4.53;3.00;;;24.20;93.70;;;;;;5067376;28;20191;-67
2022/04/28 11:09:34;;;;;;;5.43;3.30;;;24.10;94.40;;;;;;5070813;28;20256;-68
2022/04/28 11:12:11;;;;;;;4.50;3.35;;;24.50;94.10;;;;;;5069450;28;20194;-68
2022/04/28 11:15:06;;;;;;;4.47;3.30;;;24.60;94.00;;;;;;5074222;28;20737;-69
2022/04/28 11:17:38;;;;;;;7.60;3.22;;;24.60;93.40;;;;;;5070074;28;20186;-69
2022/04/28 11:20:12;;;;;;;3.95;3.00;;;24.90;93.60;;;;;;5070648;28;20202;-69
2022/04/28 11:22:47;;;;;;;7.53;3.30;;;25.00;93.00;;;;;;5068217;28;20225;-69
2022/04/28 11:25:16;;;;;;;3.88;3.47;;;25.10;94.40;;;;;;5072811;28;20312;-69
2022/04/28 11:27:49;;;;;;;4.90;3.92;;;25.00;92.90;;;;;;5077324;28;20209;-68
2022/04/28 11:30:18;;;;;;;4.50;3.38;;;24.70;92.20;;;;;;5070748;28;20289;-68
2022/04/28 11:32:51;;;;;;;5.13;3.35;;;24.40;93.10;;;;;;5069527;28;20203;-69
2022/04/28 11:35:19;;;;;;;5.53;3.00;;;24.30;92.80;;;;;;5067974;28;20581;-69
2022/04/28 11:37:50;;;;;;;4.85;3.22;;;24.30;91.60;;;;;;5065449;28;20573;-68
2022/04/28 11:40:17;;;;;;;4.88;2.97;;;24.00;93.00;;;;;;5069882;28;20195;-68
2022/04/28 11:43:01;;;;;;;5.70;3.53;;;24.20;93.70;;;;;;5070320;28;20289;-69
2022/04/28 11:45:32;;;;;;;5.78;3.60;;;24.50;92.90;;;;;;5070029;28;20227;-68
2022/04/28 11:48:00;;;;;;;5.05;3.90;;;24.70;92.60;;;;;;5064071;28;20198;-69
2022/04/28 11:50:34;;;;;;;10.43;4.65;;;24.00;93.50;;;;;;5066228;28;20569;-68
2022/04/28 11:53:11;;;;;;;4.80;3.90;;;23.60;93.60;;;;;;5070935;28;20201;-68
2022/04/28 11:55:40;;;;;;;5.93;4.35;;;23.20;94.10;;;;;;5064666;28;20221;-69
2022/04/28 11:58:08;;;;;;;6.65;5.07;;;23.10;94.20;;;;;;5068634;28;20222;-70
2022/04/28 12:00:40;;;;;;;6.35;4.60;;;23.30;94.40;;;;;;5068606;28;20194;-71
2022/04/28 12:03:07;;;;;;;5.22;4.10;;;23.40;94.30;;;;;;5072309;28;20678;-72
2022/04/28 12:05:35;;;;;;;6.60;4.32;;;23.50;94.40;;;;;;5068552;28;20206;-68
2022/04/28 12:08:03;;;;;;;6.63;4.55;;;23.50;94.50;;;;;;5075722;28;20247;-70
2022/04/28 12:16:22;;;;;;;11.65;4.20;;;23.10;94.80;;;;;;5073363;28;20218;-67
2022/04/28 12:21:38;;;;;;;5.55;3.97;;;23.30;95.00;;;;;;5065393;28;20613;-67
2022/04/28 12:24:14;;;;;;;5.47;3.75;;;23.40;94.50;;;;;;5073910;28;20309;-67
2022/04/28 12:26:47;;;;;;;7.78;4.75;;;23.70;94.20;;;;;;5066869;28;20228;-68
2022/04/28 12:29:16;;;;;;;6.57;4.00;;;23.80;93.70;;;;;;5071753;28;20194;-68
2022/04/28 12:31:44;;;;;;;6.05;4.68;;;23.80;93.80;;;;;;5066329;28;20194;-68
2022/04/28 12:34:19;;;;;;;5.82;3.92;;;23.60;93.50;;;;;;5071108;28;20696;-67
2022/04/28 12:36:53;;;;;;;6.05;3.90;;;23.50;93.80;;;;;;5070934;28;20213;-66
2022/04/28 12:39:28;;;;;;;6.00;4.30;;;23.60;93.60;;;;;;5070411;28;20193;-66
2022/04/28 12:41:55;;;;;;;4.55;4.00;;;23.40;94.40;;;;;;5071695;28;20196;-67
2022/04/28 12:44:23;;;;;;;8.65;4.70;;;23.60;94.50;;;;;;5070982;28;20224;-67
2022/04/28 12:46:55;;;;;;;5.25;4.53;;;24.10;94.00;;;;;;5067768;28;20198;-66
2022/04/28 12:49:23;;;;;;;5.40;3.53;;;24.20;94.10;;;;;;5069776;28;20206;-66
2022/04/28 12:51:55;;;;;;;5.05;3.90;;;24.50;94.00;;;;;;5069986;28;21167;-68
2022/04/28 12:54:27;;;;;;;7.25;4.55;;;24.70;93.40;;;;;;5074383;28;20221;-67
2022/04/28 12:57:00;;;;;;;5.40;4.47;;;24.70;93.20;;;;;;5041164;28;61842;-65
2022/04/28 12:59:36;;;;;;;5.78;4.78;;;24.70;93.20;;;;;;5023111;28;20233;-66
2022/04/28 13:02:05;;;;;;;6.10;4.30;;;24.50;93.30;;;;;;5071371;28;20542;-67
2022/04/28 13:04:36;;;;;;;4.88;3.90;;;24.00;93.70;;;;;;5069904;28;20313;-70
2022/04/28 13:07:04;;;;;;;4.55;4.03;;;24.10;93.60;;;;;;5071757;28;20195;-68
2022/04/28 13:09:31;;;;;;;6.95;3.92;;;23.90;93.20;;;;;;5075021;28;20193;-65
2022/04/28 13:11:59;;;;;;;4.18;3.78;;;24.00;93.20;;;;;;5063423;28;20286;-67
2022/04/28 13:14:26;;;;;;;6.30;3.95;;;24.00;93.10;;;;;;5064810;28;20722;-69
2022/04/28 13:16:53;;;;;;;7.70;4.40;;;23.80;93.90;;;;;;5067321;28;20308;-68
2022/04/28 13:19:22;;;;;;;5.40;4.07;;;23.40;93.60;;;;;;5072935;28;20659;-67
2022/04/28 13:21:49;;;;;;;5.72;4.15;;;23.10;94.40;;;;;;5073747;28;20255;-68
2022/04/28 13:24:17;;;;;;;6.07;4.45;;;23.10;94.70;;;;;;5069519;28;20716;-67
2022/04/28 13:26:43;;;;;;;4.22;3.83;;;23.20;94.00;;;;;;5071027;28;20562;-67
2022/04/28 13:29:10;;;;;;;7.22;4.28;;;23.20;94.40;;;;;;5073606;28;20194;-67
2022/04/28 13:31:40;;;;;;;5.20;4.10;;;23.20;94.10;;;;;;5075751;28;20241;-68